www.cux-wetter.de
Wetterdaten: Woche 23.08.10 - 29.08.10 (KW34)
Datum Zeit Temp. A. Feuchte A. Luftdruck Regen Wind Richtung Sonnenschein Solar Taupunkt Windchill Windben
23.08.2010 00:00 17,5 C 83 % 1009,1 hPa 0,0 l/m 0,0 km/h (0 Bft) N 0,00 h 0 W/m 14,5 C 17,5 C 0,0 km/h (0 Bft)
23.08.2010 01:00 16,5 C 83 % 1008,5 hPa 0,0 l/m 0,0 km/h (0 Bft) N 0,00 h 0 W/m 13,7 C 16,5 C 0,0 km/h (0 Bft)
23.08.2010 02:00 16,0 C 84 % 1007,9 hPa 0,0 l/m 0,0 km/h (0 Bft) N 0,00 h 0 W/m 13,3 C 16,0 C 0,0 km/h (0 Bft)
23.08.2010 03:00 15,5 C 84 % 1007,3 hPa 0,0 l/m 0,0 km/h (0 Bft) N 0,00 h 0 W/m 12,8 C 15,5 C 0,0 km/h (0 Bft)
23.08.2010 04:00 15,1 C 85 % 1006,5 hPa 0,0 l/m 0,0 km/h (0 Bft) N 0,00 h 0 W/m 12,6 C 15,1 C 0,0 km/h (0 Bft)
23.08.2010 05:00 15,3 C 86 % 1006,0 hPa 0,0 l/m 0,7 km/h (0 Bft) NW 0,00 h 0 W/m 13,0 C 15,3 C 0,7 km/h (0 Bft)
23.08.2010 06:00 15,6 C 87 % 1005,1 hPa 0,0 l/m 2,4 km/h (1 Bft) S-SO 0,00 h 0 W/m 13,5 C 15,6 C 2,4 km/h (1 Bft)
23.08.2010 07:00 16,1 C 88 % 1003,9 hPa 0,0 l/m 5,6 km/h (2 Bft) SO 0,00 h 0 W/m 14,2 C 15,6 C 5,6 km/h (2 Bft)
23.08.2010 08:00 16,9 C 89 % 1002,8 hPa 0,0 l/m 13,7 km/h (3 Bft) S-SO 0,00 h 0 W/m 15,1 C 14,0 C 13,7 km/h (3 Bft)
23.08.2010 09:00 17,2 C 90 % 1001,7 hPa 0,3 l/m 14,6 km/h (3 Bft) S-SO 0,00 h 0 W/m 15,5 C 14,0 C 14,6 km/h (3 Bft)
23.08.2010 10:00 17,6 C 91 % 1000,2 hPa 0,9 l/m 16,8 km/h (3 Bft) S-SO 0,00 h 0 W/m 16,1 C 13,9 C 16,8 km/h (3 Bft)
23.08.2010 11:00 18,2 C 93 % 999,0 hPa 0,3 l/m 17,9 km/h (3 Bft) S-SO 0,00 h 0 W/m 17,0 C 14,4 C 17,9 km/h (3 Bft)
23.08.2010 12:00 18,9 C 93 % 997,8 hPa 1,8 l/m 20,7 km/h (4 Bft) S 0,00 h 0 W/m 17,8 C 14,7 C 20,7 km/h (4 Bft)
23.08.2010 13:00 19,3 C 92 % 996,3 hPa 0,0 l/m 19,8 km/h (4 Bft) S 0,00 h 0 W/m 18,0 C 15,3 C 19,8 km/h (4 Bft)
23.08.2010 14:00 19,8 C 91 % 994,8 hPa 0,0 l/m 23,8 km/h (4 Bft) S 0,00 h 0 W/m 18,3 C 15,3 C 23,8 km/h (4 Bft)
23.08.2010 15:00 20,5 C 89 % 993,1 hPa 0,3 l/m 26,7 km/h (4 Bft) S 0,00 h 0 W/m 18,6 C 16,0 C 26,7 km/h (4 Bft)
23.08.2010 16:00 20,5 C 89 % 992,5 hPa 0,3 l/m 29,0 km/h (5 Bft) W-SW 0,00 h 0 W/m 18,6 C 15,6 C 29,0 km/h (5 Bft)
23.08.2010 17:00 20,9 C 83 % 992,5 hPa 0,0 l/m 39,5 km/h (6 Bft) W-SW 0,00 h 0 W/m 17,9 C 15,2 C 39,5 km/h (6 Bft)
23.08.2010 18:00 20,6 C 75 % 992,5 hPa 0,0 l/m 45,0 km/h (6 Bft) W 0,00 h 0 W/m 16,1 C 14,3 C 45,0 km/h (6 Bft)
23.08.2010 19:00 19,9 C 70 % 993,0 hPa 0,0 l/m 48,0 km/h (6 Bft) W 0,00 h 0 W/m 14,3 C 13,1 C 48,0 km/h (6 Bft)
23.08.2010 20:00 19,0 C 69 % 993,7 hPa 0,0 l/m 45,0 km/h (6 Bft) W 0,00 h 0 W/m 13,2 C 11,9 C 45,0 km/h (6 Bft)
23.08.2010 21:00 18,5 C 73 % 994,5 hPa 0,0 l/m 40,1 km/h (6 Bft) W 0,00 h 0 W/m 13,6 C 11,5 C 40,1 km/h (6 Bft)
23.08.2010 22:00 18,3 C 79 % 994,5 hPa 0,0 l/m 36,9 km/h (5 Bft) W 0,00 h 0 W/m 14,6 C 11,6 C 36,9 km/h (5 Bft)
23.08.2010 23:00 18,3 C 79 % 994,5 hPa 0,0 l/m 33,3 km/h (5 Bft) W-SW 0,00 h 0 W/m 14,5 C 12,0 C 33,3 km/h (5 Bft)
24.08.2010 00:00 18,5 C 78 % 994,5 hPa 0,0 l/m 35,5 km/h (5 Bft) W-SW 0,00 h 0 W/m 14,6 C 12,0 C 35,5 km/h (5 Bft)
24.08.2010 01:00 18,4 C 78 % 993,5 hPa 0,0 l/m 38,9 km/h (6 Bft) W 0,00 h 0 W/m 14,4 C 11,5 C 38,9 km/h (6 Bft)
24.08.2010 02:00 18,1 C 78 % 994,0 hPa 0,6 l/m 48,0 km/h (6 Bft) W 0,00 h 0 W/m 14,3 C 10,4 C 48,0 km/h (6 Bft)
24.08.2010 03:00 16,8 C 81 % 995,4 hPa 0,3 l/m 39,7 km/h (6 Bft) W 0,00 h 0 W/m 13,5 C 9,0 C 39,7 km/h (6 Bft)
24.08.2010 04:00 16,4 C 81 % 995,5 hPa 0,0 l/m 39,4 km/h (6 Bft) W 0,00 h 0 W/m 13,1 C 8,5 C 39,4 km/h (6 Bft)
24.08.2010 05:00 16,3 C 79 % 996,4 hPa 0,0 l/m 42,7 km/h (6 Bft) W 0,00 h 0 W/m 12,7 C 8,0 C 42,7 km/h (6 Bft)
24.08.2010 06:00 15,8 C 79 % 996,8 hPa 0,0 l/m 41,9 km/h (6 Bft) W 0,00 h 0 W/m 12,1 C 7,4 C 41,9 km/h (6 Bft)
24.08.2010 07:00 15,7 C 78 % 997,5 hPa 0,0 l/m 41,3 km/h (6 Bft) W 0,00 h 0 W/m 11,8 C 7,2 C 41,3 km/h (6 Bft)
24.08.2010 08:00 16,0 C 77 % 998,4 hPa 0,0 l/m 43,5 km/h (6 Bft) W 0,00 h 0 W/m 12,0 C 7,5 C 43,5 km/h (6 Bft)
24.08.2010 09:00 16,6 C 76 % 998,8 hPa 0,0 l/m 42,9 km/h (6 Bft) W 0,00 h 0 W/m 12,3 C 8,5 C 42,9 km/h (6 Bft)
24.08.2010 10:00 17,1 C 73 % 999,8 hPa 0,0 l/m 38,9 km/h (6 Bft) W 0,00 h 0 W/m 12,2 C 9,6 C 38,9 km/h (6 Bft)
24.08.2010 11:00 18,2 C 67 % 1000,6 hPa 0,0 l/m 39,9 km/h (6 Bft) W 0,00 h 0 W/m 11,8 C 11,0 C 39,9 km/h (6 Bft)
24.08.2010 12:00 18,2 C 65 % 1001,5 hPa 0,0 l/m 34,9 km/h (5 Bft) W 0,00 h 0 W/m 11,4 C 11,6 C 34,9 km/h (5 Bft)
24.08.2010 13:00 17,4 C 70 % 1001,5 hPa 0,3 l/m 33,2 km/h (5 Bft) W-NW 0,00 h 0 W/m 11,9 C 10,7 C 33,2 km/h (5 Bft)
24.08.2010 14:00 18,5 C 66 % 1001,8 hPa 0,0 l/m 31,4 km/h (5 Bft) W-NW 0,00 h 0 W/m 11,9 C 12,4 C 31,4 km/h (5 Bft)
24.08.2010 15:00 18,4 C 61 % 1002,5 hPa 0,0 l/m 32,8 km/h (5 Bft) W-NW 0,00 h 0 W/m 10,7 C 12,2 C 32,8 km/h (5 Bft)
24.08.2010 16:00 19,4 C 57 % 1002,5 hPa 0,0 l/m 36,4 km/h (5 Bft) W-NW 0,00 h 0 W/m 10,6 C 13,1 C 36,4 km/h (5 Bft)
24.08.2010 17:00 19,2 C 56 % 1002,5 hPa 0,0 l/m 33,9 km/h (5 Bft) W-NW 0,00 h 0 W/m 10,3 C 13,2 C 33,9 km/h (5 Bft)
24.08.2010 18:00 18,3 C 56 % 1002,3 hPa 0,0 l/m 34,6 km/h (5 Bft) W 0,00 h 0 W/m 9,5 C 11,9 C 34,6 km/h (5 Bft)
24.08.2010 19:00 16,8 C 65 % 1002,2 hPa 0,6 l/m 38,9 km/h (6 Bft) W 0,00 h 0 W/m 10,1 C 9,1 C 38,9 km/h (6 Bft)
24.08.2010 20:00 13,6 C 82 % 1002,5 hPa 0,3 l/m 36,6 km/h (5 Bft) W 0,00 h 0 W/m 10,6 C 4,7 C 36,6 km/h (5 Bft)
24.08.2010 21:00 13,5 C 82 % 1002,5 hPa 0,0 l/m 34,0 km/h (5 Bft) W 0,00 h 0 W/m 10,4 C 4,9 C 34,0 km/h (5 Bft)
24.08.2010 22:00 13,8 C 82 % 1002,8 hPa 0,0 l/m 40,3 km/h (6 Bft) W 0,00 h 0 W/m 10,8 C 4,5 C 40,3 km/h (6 Bft)
24.08.2010 23:00 14,2 C 83 % 1003,5 hPa 0,0 l/m 37,1 km/h (5 Bft) W 0,00 h 0 W/m 11,3 C 5,5 C 37,1 km/h (5 Bft)
25.08.2010 00:00 14,5 C 83 % 1003,5 hPa 0,6 l/m 38,9 km/h (6 Bft) W 0,00 h 0 W/m 11,6 C 5,7 C 38,9 km/h (6 Bft)
25.08.2010 01:00 14,4 C 87 % 1003,5 hPa 1,2 l/m 39,6 km/h (6 Bft) W 0,00 h 0 W/m 12,2 C 5,5 C 39,6 km/h (6 Bft)
25.08.2010 02:00 15,1 C 81 % 1004,0 hPa 0,0 l/m 39,0 km/h (6 Bft) NW 0,00 h 0 W/m 11,9 C 6,7 C 39,0 km/h (6 Bft)
25.08.2010 03:00 15,6 C 75 % 1004,6 hPa 0,0 l/m 37,5 km/h (5 Bft) NW 0,00 h 0 W/m 11,1 C 7,5 C 37,5 km/h (5 Bft)
25.08.2010 04:00 15,8 C 74 % 1005,0 hPa 0,0 l/m 35,0 km/h (5 Bft) NW 0,00 h 0 W/m 11,2 C 8,1 C 35,0 km/h (5 Bft)
25.08.2010 05:00 15,1 C 80 % 1005,5 hPa 0,9 l/m 34,4 km/h (5 Bft) NW 0,00 h 0 W/m 11,6 C 7,2 C 34,4 km/h (5 Bft)
25.08.2010 06:00 15,0 C 80 % 1006,5 hPa 0,3 l/m 29,2 km/h (5 Bft) NW 0,00 h 0 W/m 11,6 C 7,9 C 29,2 km/h (5 Bft)
25.08.2010 07:00 15,4 C 79 % 1006,5 hPa 0,0 l/m 26,8 km/h (4 Bft) NW 0,00 h 0 W/m 11,6 C 8,8 C 26,8 km/h (4 Bft)
25.08.2010 08:00 15,7 C 79 % 1007,4 hPa 0,0 l/m 26,1 km/h (4 Bft) W 0,00 h 0 W/m 12,1 C 9,4 C 26,1 km/h (4 Bft)
25.08.2010 09:00 15,7 C 83 % 1008,1 hPa 0,0 l/m 29,7 km/h (5 Bft) W 0,00 h 0 W/m 12,8 C 8,8 C 29,7 km/h (5 Bft)
25.08.2010 10:00 16,2 C 82 % 1008,8 hPa 0,0 l/m 30,6 km/h (5 Bft) W 0,00 h 0 W/m 13,1 C 9,2 C 30,6 km/h (5 Bft)
25.08.2010 11:00 17,6 C 73 % 1009,5 hPa 0,0 l/m 31,6 km/h (5 Bft) W-NW 0,00 h 0 W/m 12,7 C 11,1 C 31,6 km/h (5 Bft)
25.08.2010 12:00 18,7 C 67 % 1009,7 hPa 0,0 l/m 33,0 km/h (5 Bft) W-NW 0,00 h 0 W/m 12,4 C 12,5 C 33,0 km/h (5 Bft)
25.08.2010 13:00 19,0 C 65 % 1010,5 hPa 0,0 l/m 34,1 km/h (5 Bft) NW 0,00 h 0 W/m 12,3 C 12,8 C 34,1 km/h (5 Bft)
25.08.2010 14:00 20,0 C 62 % 1010,5 hPa 0,0 l/m 30,0 km/h (5 Bft) NW 0,00 h 0 W/m 12,4 C 14,8 C 30,0 km/h (5 Bft)
25.08.2010 15:00 18,3 C 70 % 1010,9 hPa 0,0 l/m 28,9 km/h (5 Bft) NW 0,00 h 0 W/m 12,6 C 12,6 C 28,9 km/h (5 Bft)
25.08.2010 16:00 18,3 C 68 % 1011,5 hPa 0,0 l/m 31,9 km/h (5 Bft) NW 0,00 h 0 W/m 12,2 C 12,1 C 31,9 km/h (5 Bft)
25.08.2010 17:00 18,4 C 62 % 1011,5 hPa 0,0 l/m 31,3 km/h (5 Bft) W-NW 0,00 h 0 W/m 10,9 C 12,3 C 31,3 km/h (5 Bft)
25.08.2010 18:00 17,4 C 64 % 1011,5 hPa 0,0 l/m 29,9 km/h (5 Bft) W-NW 0,00 h 0 W/m 10,5 C 11,0 C 29,9 km/h (5 Bft)
25.08.2010 19:00 16,8 C 68 % 1011,5 hPa 0,0 l/m 24,5 km/h (4 Bft) W-NW 0,00 h 0 W/m 10,8 C 11,2 C 24,5 km/h (4 Bft)
25.08.2010 20:00 16,0 C 71 % 1011,5 hPa 0,0 l/m 20,2 km/h (4 Bft) W-NW 0,00 h 0 W/m 10,7 C 11,1 C 20,2 km/h (4 Bft)
25.08.2010 21:00 15,6 C 75 % 1011,5 hPa 0,0 l/m 16,3 km/h (3 Bft) W-NW 0,00 h 0 W/m 11,1 C 11,6 C 16,3 km/h (3 Bft)
25.08.2010 22:00 15,5 C 77 % 1011,5 hPa 0,0 l/m 14,2 km/h (3 Bft) W 0,00 h 0 W/m 11,5 C 12,1 C 14,2 km/h (3 Bft)
25.08.2010 23:00 15,4 C 80 % 1011,5 hPa 0,0 l/m 9,7 km/h (2 Bft) W 0,00 h 0 W/m 11,9 C 13,7 C 9,7 km/h (2 Bft)
26.08.2010 00:00 15,5 C 78 % 1011,5 hPa 0,0 l/m 12,9 km/h (3 Bft) W 0,00 h 0 W/m 11,7 C 12,6 C 12,9 km/h (3 Bft)
26.08.2010 01:00 15,5 C 79 % 1010,9 hPa 0,0 l/m 15,8 km/h (3 Bft) W 0,00 h 0 W/m 11,8 C 11,6 C 15,8 km/h (3 Bft)
26.08.2010 02:00 15,4 C 78 % 1010,5 hPa 0,0 l/m 13,4 km/h (3 Bft) W 0,00 h 0 W/m 11,6 C 12,3 C 13,4 km/h (3 Bft)
26.08.2010 03:00 15,4 C 78 % 1010,0 hPa 0,0 l/m 8,6 km/h (2 Bft) W 0,00 h 0 W/m 11,5 C 14,3 C 8,6 km/h (2 Bft)
26.08.2010 04:00 15,4 C 79 % 1009,5 hPa 0,0 l/m 2,6 km/h (1 Bft) W 0,00 h 0 W/m 11,6 C 15,4 C 2,6 km/h (1 Bft)
26.08.2010 05:00 14,9 C 81 % 1008,9 hPa 0,0 l/m 4,5 km/h (1 Bft) S-SW 0,00 h 0 W/m 11,7 C 14,9 C 4,5 km/h (1 Bft)
26.08.2010 06:00 14,4 C 83 % 1008,5 hPa 0,3 l/m 6,3 km/h (2 Bft) S-SW 0,00 h 0 W/m 11,5 C 14,1 C 6,3 km/h (2 Bft)
26.08.2010 07:00 14,3 C 83 % 1008,5 hPa 0,0 l/m 5,4 km/h (1 Bft) SW 0,00 h 0 W/m 11,4 C 14,2 C 5,4 km/h (1 Bft)
26.08.2010 08:00 14,5 C 83 % 1008,4 hPa 0,0 l/m 6,3 km/h (2 Bft) W-SW 0,00 h 0 W/m 11,6 C 14,2 C 6,3 km/h (2 Bft)
26.08.2010 09:00 14,6 C 84 % 1007,5 hPa 0,0 l/m 2,3 km/h (1 Bft) W-SW 0,00 h 0 W/m 11,9 C 14,6 C 2,3 km/h (1 Bft)
26.08.2010 10:00 14,8 C 84 % 1007,5 hPa 0,3 l/m 1,4 km/h (1 Bft) W-SW 0,00 h 0 W/m 12,2 C 14,8 C 1,4 km/h (1 Bft)
26.08.2010 11:00 15,5 C 82 % 1007,5 hPa 0,0 l/m 2,8 km/h (1 Bft) W-SW 0,00 h 0 W/m 12,4 C 15,5 C 2,8 km/h (1 Bft)
26.08.2010 12:00 16,0 C 78 % 1007,5 hPa 0,0 l/m 2,7 km/h (1 Bft) O-SO 0,00 h 0 W/m 12,2 C 15,9 C 2,7 km/h (1 Bft)
26.08.2010 13:00 17,7 C 72 % 1007,5 hPa 0,0 l/m 6,5 km/h (2 Bft) O 0,00 h 0 W/m 12,5 C 17,2 C 6,5 km/h (2 Bft)
26.08.2010 14:00 18,1 C 70 % 1007,3 hPa 0,0 l/m 6,8 km/h (2 Bft) O 0,00 h 0 W/m 12,4 C 17,5 C 6,8 km/h (2 Bft)
26.08.2010 15:00 18,1 C 70 % 1007,5 hPa 0,0 l/m 5,4 km/h (2 Bft) N-NO 0,00 h 0 W/m 12,6 C 17,7 C 5,4 km/h (2 Bft)
26.08.2010 16:00 18,1 C 71 % 1007,0 hPa 0,0 l/m 8,1 km/h (2 Bft) N-NO 0,00 h 0 W/m 12,8 C 17,2 C 8,1 km/h (2 Bft)
26.08.2010 17:00 17,8 C 72 % 1006,5 hPa 0,0 l/m 3,8 km/h (1 Bft) N-NO 0,00 h 0 W/m 12,8 C 17,5 C 3,8 km/h (1 Bft)
26.08.2010 18:00 17,3 C 74 % 1006,5 hPa 0,0 l/m 1,8 km/h (1 Bft) O-NO 0,00 h 0 W/m 12,7 C 17,3 C 1,8 km/h (1 Bft)
26.08.2010 19:00 16,9 C 77 % 1005,6 hPa 0,0 l/m 0,1 km/h (0 Bft) N 0,00 h 0 W/m 12,8 C 16,9 C 0,1 km/h (0 Bft)
26.08.2010 20:00 16,5 C 78 % 1005,5 hPa 0,0 l/m 0,5 km/h (0 Bft) NO 0,00 h 0 W/m 12,6 C 16,5 C 0,5 km/h (0 Bft)
26.08.2010 21:00 16,2 C 79 % 1005,2 hPa 0,0 l/m 4,3 km/h (1 Bft) O 0,00 h 0 W/m 12,5 C 16,0 C 4,3 km/h (1 Bft)
26.08.2010 22:00 15,9 C 76 % 1004,5 hPa 0,0 l/m 9,1 km/h (2 Bft) NO 0,00 h 0 W/m 11,7 C 14,6 C 9,1 km/h (2 Bft)
26.08.2010 23:00 15,6 C 75 % 1004,1 hPa 0,0 l/m 10,2 km/h (2 Bft) N-NO 0,00 h 0 W/m 11,1 C 13,8 C 10,2 km/h (2 Bft)
27.08.2010 00:00 15,5 C 77 % 1003,0 hPa 0,0 l/m 12,0 km/h (2 Bft) NO 0,00 h 0 W/m 11,5 C 13,0 C 12,0 km/h (2 Bft)
27.08.2010 01:00 15,5 C 81 % 1002,5 hPa 0,0 l/m 9,9 km/h (2 Bft) O 0,00 h 0 W/m 12,2 C 13,8 C 9,9 km/h (2 Bft)
27.08.2010 02:00 15,6 C 81 % 1001,7 hPa 0,0 l/m 10,9 km/h (2 Bft) NO 0,00 h 0 W/m 12,2 C 13,5 C 10,9 km/h (2 Bft)
27.08.2010 03:00 15,5 C 82 % 1000,8 hPa 0,0 l/m 9,2 km/h (2 Bft) O-NO 0,00 h 0 W/m 12,3 C 13,7 C 9,2 km/h (2 Bft)
27.08.2010 04:00 15,0 C 83 % 1000,5 hPa 0,0 l/m 13,7 km/h (3 Bft) N-NO 0,00 h 0 W/m 12,1 C 11,8 C 13,7 km/h (3 Bft)
27.08.2010 05:00 14,6 C 81 % 1000,5 hPa 0,0 l/m 20,1 km/h (4 Bft) N-NO 0,00 h 0 W/m 11,3 C 9,3 C 20,1 km/h (4 Bft)
27.08.2010 06:00 14,2 C 80 % 1000,4 hPa 0,0 l/m 20,4 km/h (4 Bft) NO 0,00 h 0 W/m 10,7 C 8,7 C 20,4 km/h (4 Bft)
27.08.2010 07:00 14,3 C 83 % 1000,5 hPa 0,3 l/m 14,9 km/h (3 Bft) NO 0,00 h 0 W/m 11,4 C 10,4 C 14,9 km/h (3 Bft)
27.08.2010 08:00 14,3 C 83 % 1000,5 hPa 0,0 l/m 18,0 km/h (3 Bft) N-NO 0,00 h 0 W/m 11,5 C 9,5 C 18,0 km/h (3 Bft)
27.08.2010 09:00 14,3 C 84 % 1000,5 hPa 0,9 l/m 18,5 km/h (3 Bft) NO 0,00 h 0 W/m 11,7 C 9,4 C 18,5 km/h (3 Bft)
27.08.2010 10:00 13,7 C 85 % 1000,5 hPa 0,9 l/m 17,5 km/h (3 Bft) N-NO 0,00 h 0 W/m 11,2 C 8,8 C 17,5 km/h (3 Bft)
27.08.2010 11:00 14,0 C 85 % 1001,2 hPa 0,6 l/m 17,7 km/h (3 Bft) N-NO 0,00 h 0 W/m 11,6 C 9,2 C 17,7 km/h (3 Bft)
27.08.2010 12:00 14,3 C 88 % 1001,5 hPa 1,2 l/m 15,3 km/h (3 Bft) N-NO 0,00 h 0 W/m 12,4 C 10,3 C 15,3 km/h (3 Bft)
27.08.2010 13:00 14,4 C 89 % 1001,5 hPa 1,5 l/m 18,9 km/h (3 Bft) N-NO 0,00 h 0 W/m 12,6 C 9,4 C 18,9 km/h (3 Bft)
27.08.2010 14:00 14,1 C 88 % 1002,3 hPa 1,2 l/m 15,3 km/h (3 Bft) N-NO 0,00 h 0 W/m 12,0 C 10,0 C 15,3 km/h (3 Bft)
27.08.2010 15:00 14,3 C 87 % 1002,8 hPa 0,3 l/m 15,7 km/h (3 Bft) N-NO 0,00 h 0 W/m 12,2 C 10,1 C 15,7 km/h (3 Bft)
27.08.2010 16:00 14,6 C 86 % 1003,5 hPa 0,3 l/m 14,7 km/h (3 Bft) N-NO 0,00 h 0 W/m 12,2 C 10,8 C 14,7 km/h (3 Bft)
27.08.2010 17:00 15,6 C 79 % 1003,5 hPa 0,0 l/m 17,4 km/h (3 Bft) N-NO 0,00 h 0 W/m 12,0 C 11,2 C 17,4 km/h (3 Bft)
27.08.2010 18:00 15,9 C 72 % 1004,3 hPa 0,0 l/m 21,1 km/h (4 Bft) N 0,00 h 0 W/m 10,9 C 10,7 C 21,1 km/h (4 Bft)
27.08.2010 19:00 15,3 C 74 % 1004,5 hPa 0,0 l/m 19,2 km/h (3 Bft) N 0,00 h 0 W/m 10,7 C 10,4 C 19,2 km/h (3 Bft)
27.08.2010 20:00 15,2 C 74 % 1005,0 hPa 0,0 l/m 20,1 km/h (4 Bft) N 0,00 h 0 W/m 10,7 C 10,0 C 20,1 km/h (4 Bft)
27.08.2010 21:00 15,0 C 74 % 1005,5 hPa 0,0 l/m 17,7 km/h (3 Bft) N 0,00 h 0 W/m 10,5 C 10,4 C 17,7 km/h (3 Bft)
27.08.2010 22:00 15,3 C 76 % 1005,5 hPa 0,0 l/m 21,2 km/h (4 Bft) N 0,00 h 0 W/m 11,0 C 9,9 C 21,2 km/h (4 Bft)
27.08.2010 23:00 15,5 C 77 % 1006,1 hPa 0,0 l/m 25,8 km/h (4 Bft) N 0,00 h 0 W/m 11,5 C 9,2 C 25,8 km/h (4 Bft)
28.08.2010 00:00 15,5 C 77 % 1006,5 hPa 0,0 l/m 28,9 km/h (5 Bft) N 0,00 h 0 W/m 11,5 C 8,6 C 28,9 km/h (5 Bft)
28.08.2010 01:00 15,7 C 77 % 1006,5 hPa 0,0 l/m 28,8 km/h (5 Bft) N 0,00 h 0 W/m 11,6 C 8,8 C 28,8 km/h (5 Bft)
28.08.2010 02:00 15,5 C 78 % 1006,8 hPa 0,0 l/m 29,3 km/h (5 Bft) N 0,00 h 0 W/m 11,7 C 8,5 C 29,3 km/h (5 Bft)
28.08.2010 03:00 15,4 C 78 % 1007,5 hPa 0,6 l/m 32,0 km/h (5 Bft) N 0,00 h 0 W/m 11,5 C 7,9 C 32,0 km/h (5 Bft)
28.08.2010 04:00 15,0 C 79 % 1007,5 hPa 0,6 l/m 33,2 km/h (5 Bft) N 0,00 h 0 W/m 11,4 C 7,3 C 33,2 km/h (5 Bft)
28.08.2010 05:00 15,0 C 74 % 1008,2 hPa 0,0 l/m 32,0 km/h (5 Bft) N 0,00 h 0 W/m 10,4 C 7,4 C 32,0 km/h (5 Bft)
28.08.2010 06:00 14,9 C 70 % 1008,5 hPa 0,0 l/m 25,9 km/h (4 Bft) N 0,00 h 0 W/m 9,6 C 8,4 C 25,9 km/h (4 Bft)
28.08.2010 07:00 14,9 C 70 % 1008,9 hPa 0,0 l/m 25,6 km/h (4 Bft) N 0,00 h 0 W/m 9,4 C 8,4 C 25,6 km/h (4 Bft)
28.08.2010 08:00 13,9 C 78 % 1009,5 hPa 4,2 l/m 16,4 km/h (3 Bft) NW 0,00 h 0 W/m 10,0 C 9,6 C 16,4 km/h (3 Bft)
28.08.2010 09:00 14,2 C 80 % 1009,8 hPa 0,3 l/m 19,4 km/h (3 Bft) NW 0,00 h 0 W/m 10,7 C 9,0 C 19,4 km/h (3 Bft)
28.08.2010 10:00 14,8 C 77 % 1010,5 hPa 0,0 l/m 21,4 km/h (4 Bft) NW 0,00 h 0 W/m 10,9 C 9,3 C 21,4 km/h (4 Bft)
28.08.2010 11:00 15,6 C 74 % 1010,5 hPa 0,3 l/m 22,9 km/h (4 Bft) NW 0,00 h 0 W/m 11,0 C 9,9 C 22,9 km/h (4 Bft)
28.08.2010 12:00 16,9 C 67 % 1010,5 hPa 0,0 l/m 22,8 km/h (4 Bft) N-NW 0,00 h 0 W/m 10,6 C 11,6 C 22,8 km/h (4 Bft)
28.08.2010 13:00 17,6 C 62 % 1010,5 hPa 0,0 l/m 22,8 km/h (4 Bft) N-NW 0,00 h 0 W/m 10,3 C 12,6 C 22,8 km/h (4 Bft)
28.08.2010 14:00 18,5 C 58 % 1010,5 hPa 0,0 l/m 21,5 km/h (4 Bft) N-NW 0,00 h 0 W/m 10,1 C 14,0 C 21,5 km/h (4 Bft)
28.08.2010 15:00 18,5 C 58 % 1010,5 hPa 0,0 l/m 20,4 km/h (4 Bft) NW 0,00 h 0 W/m 10,1 C 14,3 C 20,4 km/h (4 Bft)
28.08.2010 16:00 17,9 C 59 % 1010,5 hPa 0,0 l/m 18,1 km/h (3 Bft) N-NW 0,00 h 0 W/m 9,8 C 14,0 C 18,1 km/h (3 Bft)
28.08.2010 17:00 16,8 C 63 % 1010,5 hPa 0,0 l/m 18,6 km/h (3 Bft) N-NW 0,00 h 0 W/m 9,7 C 12,5 C 18,6 km/h (3 Bft)
28.08.2010 18:00 16,6 C 63 % 1010,5 hPa 0,0 l/m 17,9 km/h (3 Bft) NW 0,00 h 0 W/m 9,6 C 12,4 C 17,9 km/h (3 Bft)
28.08.2010 19:00 16,0 C 64 % 1010,5 hPa 0,0 l/m 18,4 km/h (3 Bft) NW 0,00 h 0 W/m 9,3 C 11,5 C 18,4 km/h (3 Bft)
28.08.2010 20:00 15,3 C 69 % 1010,5 hPa 0,0 l/m 12,7 km/h (3 Bft) NW 0,00 h 0 W/m 9,5 C 12,4 C 12,7 km/h (3 Bft)
28.08.2010 21:00 14,0 C 75 % 1010,8 hPa 3,0 l/m 15,4 km/h (3 Bft) NW 0,00 h 0 W/m 9,6 C 10,2 C 15,4 km/h (3 Bft)
28.08.2010 22:00 13,5 C 80 % 1010,5 hPa 0,0 l/m 5,8 km/h (2 Bft) NW 0,00 h 0 W/m 10,1 C 12,7 C 5,8 km/h (2 Bft)
28.08.2010 23:00 13,2 C 84 % 1010,5 hPa 1,2 l/m 13,7 km/h (3 Bft) W 0,00 h 0 W/m 10,6 C 9,5 C 13,7 km/h (3 Bft)
29.08.2010 00:00 12,5 C 86 % 1010,5 hPa 1,8 l/m 19,6 km/h (3 Bft) W 0,00 h 0 W/m 10,2 C 6,7 C 19,6 km/h (3 Bft)
29.08.2010 01:00 12,4 C 87 % 1009,5 hPa 0,0 l/m 15,4 km/h (3 Bft) W-SW 0,00 h 0 W/m 10,2 C 8,0 C 15,4 km/h (3 Bft)
29.08.2010 02:00 12,6 C 90 % 1008,5 hPa 1,5 l/m 20,8 km/h (4 Bft) W 0,00 h 0 W/m 11,0 C 6,6 C 20,8 km/h (4 Bft)
29.08.2010 03:00 12,7 C 90 % 1008,5 hPa 1,8 l/m 19,7 km/h (3 Bft) W-SW 0,00 h 0 W/m 11,1 C 6,9 C 19,7 km/h (3 Bft)
29.08.2010 04:00 12,5 C 90 % 1007,8 hPa 3,9 l/m 19,4 km/h (3 Bft) W-SW 0,00 h 0 W/m 10,9 C 6,8 C 19,4 km/h (3 Bft)
29.08.2010 05:00 12,6 C 91 % 1007,3 hPa 0,6 l/m 25,8 km/h (4 Bft) W 0,00 h 0 W/m 11,2 C 5,2 C 25,8 km/h (4 Bft)
29.08.2010 06:00 12,0 C 89 % 1006,8 hPa 2,4 l/m 15,2 km/h (3 Bft) W-SW 0,00 h 0 W/m 10,2 C 7,9 C 15,2 km/h (3 Bft)
29.08.2010 07:00 11,8 C 89 % 1006,5 hPa 0,0 l/m 14,1 km/h (3 Bft) W-SW 0,00 h 0 W/m 10,1 C 7,9 C 14,1 km/h (3 Bft)
29.08.2010 08:00 12,7 C 91 % 1006,5 hPa 0,9 l/m 25,5 km/h (4 Bft) W 0,00 h 0 W/m 11,3 C 5,5 C 25,5 km/h (4 Bft)
29.08.2010 09:00 13,1 C 90 % 1006,5 hPa 2,4 l/m 22,4 km/h (4 Bft) W 0,00 h 0 W/m 11,5 C 6,8 C 22,4 km/h (4 Bft)
29.08.2010 10:00 14,4 C 86 % 1006,4 hPa 0,0 l/m 25,4 km/h (4 Bft) W 0,00 h 0 W/m 12,0 C 7,8 C 25,4 km/h (4 Bft)
29.08.2010 11:00 15,6 C 80 % 1005,6 hPa 0,0 l/m 25,7 km/h (4 Bft) W 0,00 h 0 W/m 12,2 C 9,3 C 25,7 km/h (4 Bft)
29.08.2010 12:00 16,9 C 74 % 1005,3 hPa 0,0 l/m 28,3 km/h (5 Bft) W 0,00 h 0 W/m 12,2 C 10,6 C 28,3 km/h (5 Bft)
29.08.2010 13:00 16,2 C 74 % 1004,8 hPa 0,3 l/m 22,3 km/h (4 Bft) W 0,00 h 0 W/m 11,4 C 11,2 C 22,3 km/h (4 Bft)
29.08.2010 14:00 14,7 C 83 % 1004,5 hPa 3,0 l/m 15,4 km/h (3 Bft) W 0,00 h 0 W/m 11,7 C 10,9 C 15,4 km/h (3 Bft)
29.08.2010 15:00 14,0 C 86 % 1003,5 hPa 0,6 l/m 23,4 km/h (4 Bft) W-SW 0,00 h 0 W/m 11,8 C 7,8 C 23,4 km/h (4 Bft)
29.08.2010 16:00 13,9 C 88 % 1002,3 hPa 1,5 l/m 17,2 km/h (3 Bft) W-SW 0,00 h 0 W/m 12,0 C 9,2 C 17,2 km/h (3 Bft)
29.08.2010 17:00 14,7 C 88 % 1001,5 hPa 0,0 l/m 16,2 km/h (3 Bft) SW 0,00 h 0 W/m 12,7 C 10,5 C 16,2 km/h (3 Bft)
29.08.2010 18:00 14,4 C 87 % 1000,7 hPa 0,6 l/m 14,7 km/h (3 Bft) S-SW 0,00 h 0 W/m 12,3 C 10,7 C 14,7 km/h (3 Bft)
29.08.2010 19:00 13,9 C 88 % 999,5 hPa 1,5 l/m 15,7 km/h (3 Bft) S-SW 0,00 h 0 W/m 11,9 C 9,7 C 15,7 km/h (3 Bft)
29.08.2010 20:00 13,2 C 88 % 999,5 hPa 0,9 l/m 8,0 km/h (2 Bft) S-SW 0,00 h 0 W/m 11,2 C 12,2 C 8,0 km/h (2 Bft)
29.08.2010 21:00 13,0 C 88 % 999,1 hPa 0,3 l/m 8,0 km/h (2 Bft) S 0,00 h 0 W/m 11,1 C 12,1 C 8,0 km/h (2 Bft)
29.08.2010 22:00 12,6 C 88 % 999,5 hPa 0,9 l/m 17,9 km/h (3 Bft) W 0,00 h 0 W/m 10,7 C 7,4 C 17,9 km/h (3 Bft)
29.08.2010 23:00 11,7 C 88 % 999,5 hPa 0,0 l/m 17,4 km/h (3 Bft) W 0,00 h 0 W/m 9,8 C 6,4 C 17,4 km/h (3 Bft)
Min-Datum _ 29.08.10 24.08.10 23.08.10 - 23.08.10 - - - 24.08.10 24.08.10 23.08.10
_ Min-Zeit 07:02 17:26 15:36 - 00:01 - - - 18:11 21:36 00:01
Minimum _ 11,5 C 54 % 992,5 hPa - 0,0 km/h (0 Bft) - - - 8,9 C 3,9 C 0,0 km/h (0 Bft)
Max-Datum _ 23.08.10 23.08.10 25.08.10 28.08.10 23.08.10 - 23.08.10 23.08.10 23.08.10 26.08.10 23.08.10
_ Max-Zeit 16:51 11:31 15:36 08:12 19:01 - 00:01 00:01 16:41 14:06 19:01
Maximum _ 21,2 C 93 % 1011,5 hPa 4,2 l/m 58,8 km/h
W (7 Bft)
- 0,00 h 0 W/m 19,2 C 18,2 C 58,8 km/h
W (7 Bft)
Durchschnitt _ 15,9 C 78 % 1004,5 hPa #51,9 l/m 21,6 km/h (4 Bft) W #0 min. 0 W/m 12,0 C 11,3 C 21,6 km/h (4 Bft)
copyright by Holger Just